Time;durP1;ratioP1;P1;durP2;ratioP2;P2;SDS_P1;SDS_P2;PMS_P1;PMS_P2;Temp;Humidity;BMP_temperature;BMP_pressure;BME280_temperature;BME280_humidity;BME280_pressure;Samples;Min_cycle;Max_cycle;Signal;HPM_P1;HPM_P2
2023/06/19 00:01:39;;;;;;;2.40;1.33;;;;;;;19.69;100.00;100857.25;5095997;28;20105;-74
2023/06/19 00:04:05;;;;;;;1.77;1.52;;;;;;;19.66;100.00;100860.34;5077864;28;20038;-74
2023/06/19 00:06:30;;;;;;;9.13;1.45;;;;;;;19.60;100.00;100855.75;5096090;28;20043;-75
2023/06/19 00:08:55;;;;;;;3.25;1.40;;;;;;;19.52;100.00;100859.44;5077651;28;20055;-75
2023/06/19 00:11:21;;;;;;;5.53;1.88;;;;;;;19.46;100.00;100858.34;5095904;28;20032;-74
2023/06/19 00:13:46;;;;;;;2.35;1.20;;;;;;;19.38;100.00;100845.03;5095595;28;20123;-74
2023/06/19 00:16:12;;;;;;;1.50;1.38;;;;;;;19.30;100.00;100862.19;5095353;28;20040;-74
2023/06/19 00:18:40;;;;;;;2.58;1.50;;;;;;;19.22;100.00;100862.34;5095729;28;20102;-75
2023/06/19 00:21:07;;;;;;;5.63;1.70;;;;;;;19.17;100.00;100864.81;5060952;28;20106;-75
2023/06/19 00:23:33;;;;;;;3.88;2.05;;;;;;;19.09;100.00;100856.84;5095621;28;20039;-75
2023/06/19 00:26:00;;;;;;;3.63;1.90;;;;;;;19.01;100.00;100861.34;5095176;28;20471;-75
2023/06/19 00:28:26;;;;;;;2.40;2.20;;;;;;;18.92;100.00;100867.91;5095553;28;20043;-75
2023/06/19 00:30:52;;;;;;;5.93;2.53;;;;;;;18.85;100.00;100859.75;5095295;28;20036;-76
2023/06/19 00:33:17;;;;;;;5.28;2.40;;;;;;;18.80;100.00;100867.53;5095212;28;20061;-76
2023/06/19 00:35:43;;;;;;;3.08;2.40;;;;;;;18.78;100.00;100861.53;5095172;28;20028;-77
2023/06/19 00:38:09;;;;;;;4.68;2.90;;;;;;;18.82;100.00;100880.81;5077301;28;20097;-76
2023/06/19 00:40:34;;;;;;;3.88;2.75;;;;;;;18.82;100.00;100860.13;5095351;28;20074;-75
2023/06/19 00:43:00;;;;;;;3.78;3.13;;;;;;;18.84;100.00;100865.31;5094666;28;20030;-75
2023/06/19 00:45:26;;;;;;;3.05;2.72;;;;;;;18.87;100.00;100874.88;5095285;28;20448;-75
2023/06/19 00:47:53;;;;;;;4.25;2.88;;;;;;;18.88;100.00;100869.31;5077131;28;20028;-75
2023/06/19 00:50:20;;;;;;;3.40;3.10;;;;;;;18.87;100.00;100870.34;5094854;28;20495;-75
2023/06/19 00:52:45;;;;;;;4.60;2.80;;;;;;;18.88;100.00;100872.00;5094780;28;20468;-76
2023/06/19 00:55:11;;;;;;;7.72;3.08;;;;;;;18.88;100.00;100863.91;5094841;28;20039;-75
2023/06/19 00:57:39;;;;;;;4.80;2.97;;;;;;;18.87;100.00;100856.00;5094569;28;20474;-75
2023/06/19 01:00:06;;;;;;;6.30;3.75;;;;;;;18.88;100.00;100860.38;5094683;28;20407;-75
2023/06/19 01:02:32;;;;;;;3.63;2.92;;;;;;;18.87;100.00;100862.25;5094541;28;20436;-75
2023/06/19 01:04:57;;;;;;;9.65;3.05;;;;;;;18.85;100.00;100870.53;5094581;28;20067;-74
2023/06/19 01:07:31;;;;;;;4.50;3.58;;;;;;;18.81;100.00;100855.75;5076228;28;20431;-75
2023/06/19 01:10:05;;;;;;;7.70;3.53;;;;;;;18.81;100.00;100871.06;5094849;28;20057;-75
2023/06/19 01:12:40;;;;;;;6.20;3.20;;;;;;;18.78;100.00;100866.91;5094466;28;20119;-76
2023/06/19 01:15:08;;;;;;;6.78;3.13;;;;;;;18.75;100.00;100870.00;5094357;28;20116;-75
2023/06/19 01:17:35;;;;;;;9.70;4.18;;;;;;;18.69;100.00;100870.75;5094156;28;20143;-75
2023/06/19 01:20:11;;;;;;;8.70;4.15;;;;;;;18.61;100.00;100866.31;5094642;28;20028;-75
2023/06/19 01:22:36;;;;;;;6.25;4.22;;;;;;;18.54;100.00;100870.81;5094528;28;20028;-74
2023/06/19 01:25:04;;;;;;;8.52;4.38;;;;;;;18.47;100.00;100864.53;5076271;28;20024;-74
2023/06/19 01:27:30;;;;;;;6.82;4.55;;;;;;;18.45;100.00;100874.63;5094120;28;20061;-74
2023/06/19 01:29:56;;;;;;;13.05;5.32;;;;;;;18.37;100.00;100867.50;5094386;28;20028;-75
2023/06/19 01:32:41;;;;;;;5.38;4.47;;;;;;;18.31;100.00;100861.00;5094059;28;20035;-75
2023/06/19 01:35:11;;;;;;;6.43;5.10;;;;;;;18.23;100.00;100863.00;5094483;28;20093;-75
2023/06/19 01:37:38;;;;;;;7.28;5.93;;;;;;;18.16;100.00;100862.91;5076343;28;20043;-75
2023/06/19 01:40:09;;;;;;;6.90;5.80;;;;;;;18.10;100.00;100855.59;5093982;28;20108;-76
2023/06/19 01:42:37;;;;;;;11.40;6.18;;;;;;;18.09;100.00;100853.91;5094180;28;20032;-75
2023/06/19 01:45:03;;;;;;;8.98;6.82;;;;;;;18.09;100.00;100854.78;5093954;28;20031;-75
2023/06/19 01:47:29;;;;;;;7.68;6.88;;;;;;;18.10;100.00;100853.72;5093755;28;20122;-75
2023/06/19 01:49:54;;;;;;;11.88;6.90;;;;;;;18.12;100.00;100853.53;5076269;28;20072;-76
2023/06/19 01:52:20;;;;;;;12.38;7.25;;;;;;;18.14;100.00;100851.50;5093692;28;20066;-75
2023/06/19 01:54:45;;;;;;;10.63;7.63;;;;;;;18.16;100.00;100852.13;5076208;28;20036;-75
2023/06/19 01:57:12;;;;;;;10.60;7.85;;;;;;;18.20;100.00;100850.75;5093915;28;20471;-75
2023/06/19 01:59:37;;;;;;;12.88;8.60;;;;;;;18.24;100.00;100848.50;5075512;28;20040;-75
2023/06/19 02:02:03;;;;;;;10.25;8.30;;;;;;;18.27;100.00;100854.34;5075203;28;20085;-74
2023/06/19 02:04:29;;;;;;;11.13;8.55;;;;;;;18.31;100.00;100844.03;5093478;28;20032;-75
2023/06/19 02:06:55;;;;;;;11.27;8.63;;;;;;;18.35;100.00;100848.03;5093917;28;20411;-75
2023/06/19 02:09:20;;;;;;;11.23;9.38;;;;;;;18.38;100.00;100846.81;5093204;28;20036;-75
2023/06/19 02:11:45;;;;;;;10.75;9.20;;;;;;;18.43;100.00;100857.84;5075352;28;20036;-75
2023/06/19 02:14:11;;;;;;;12.10;9.80;;;;;;;18.46;100.00;100849.38;5093680;28;20407;-75
2023/06/19 02:16:36;;;;;;;21.88;13.13;;;;;;;18.48;100.00;100856.25;5093458;28;20487;-75
2023/06/19 02:19:02;;;;;;;20.92;14.43;;;;;;;18.49;100.00;100857.91;5093634;28;20048;-75
2023/06/19 02:21:28;;;;;;;20.27;14.60;;;;;;;18.49;100.00;100852.50;5093584;28;20032;-75
2023/06/19 02:23:54;;;;;;;28.10;16.75;;;;;;;18.45;100.00;100859.31;5093300;28;20424;-76
2023/06/19 02:26:19;;;;;;;31.40;17.90;;;;;;;18.28;100.00;100853.31;5093619;28;20028;-76
2023/06/19 02:28:45;;;;;;;27.48;18.67;;;;;;;18.08;100.00;100868.41;5075821;28;20024;-76
2023/06/19 02:31:10;;;;;;;28.67;19.50;;;;;;;17.87;100.00;100869.97;5093037;28;20107;-76
2023/06/19 02:33:35;;;;;;;29.83;19.85;;;;;;;17.73;100.00;100873.50;5093274;28;20034;-76
2023/06/19 02:36:01;;;;;;;38.67;23.88;;;;;;;17.65;100.00;100882.50;5093169;28;20047;-76
2023/06/19 02:38:29;;;;;;;47.25;27.33;;;;;;;17.58;100.00;100887.75;5093298;28;20414;-75
2023/06/19 02:40:54;;;;;;;49.58;29.20;;;;;;;17.56;100.00;100897.88;5093078;28;20060;-77
2023/06/19 02:43:20;;;;;;;56.25;31.88;;;;;;;17.53;100.00;100892.88;5093480;28;20067;-76
2023/06/19 02:45:45;;;;;;;65.82;35.35;;;;;;;17.53;100.00;100914.41;5093674;28;20068;-76
2023/06/19 02:48:10;;;;;;;61.78;34.50;;;;;;;17.51;100.00;100902.13;5092670;28;20111;-76
2023/06/19 02:50:36;;;;;;;65.28;35.28;;;;;;;17.52;100.00;100917.25;5093616;28;20059;-77
2023/06/19 02:53:01;;;;;;;53.92;33.20;;;;;;;17.44;100.00;100918.19;5093020;28;20469;-77
2023/06/19 02:55:27;;;;;;;63.42;35.53;;;;;;;17.35;100.00;100921.97;5093311;28;20512;-75
2023/06/19 02:57:52;;;;;;;61.13;35.85;;;;;;;17.25;100.00;100924.91;5092801;28;20114;-74
2023/06/19 03:00:18;;;;;;;65.50;35.92;;;;;;;17.18;100.00;100924.81;5093237;28;20056;-73
2023/06/19 03:02:48;;;;;;;58.05;37.42;;;;;;;17.13;100.00;100929.88;5093353;28;20028;-74
2023/06/19 03:05:16;;;;;;;62.95;35.75;;;;;;;17.11;100.00;100937.28;5093640;28;20059;-75
2023/06/19 03:07:42;;;;;;;48.60;29.92;;;;;;;17.08;100.00;100951.09;5096652;28;20086;-73
2023/06/19 03:10:08;;;;;;;52.08;28.80;;;;;;;16.99;100.00;100950.31;5096573;28;20067;-72
2023/06/19 03:12:34;;;;;;;34.65;21.55;;;;;;;16.97;100.00;100954.19;5097249;28;20047;-73
2023/06/19 03:14:59;;;;;;;30.60;20.23;;;;;;;16.91;100.00;100955.72;5096734;28;20036;-74
2023/06/19 03:17:25;;;;;;;35.72;20.75;;;;;;;16.88;100.00;100961.44;5097201;28;20048;-72
2023/06/19 03:19:50;;;;;;;35.22;20.35;;;;;;;16.85;100.00;100959.91;5096818;28;20047;-73
2023/06/19 03:22:15;;;;;;;39.90;23.63;;;;;;;16.82;100.00;100972.88;5096699;28;20032;-71
2023/06/19 03:24:41;;;;;;;51.17;28.00;;;;;;;16.82;100.00;100967.50;5078633;28;20165;-72
2023/06/19 03:27:06;;;;;;;68.35;34.90;;;;;;;16.79;100.00;100983.97;5096219;28;20038;-72
2023/06/19 03:29:31;;;;;;;78.47;38.08;;;;;;;16.76;100.00;100990.53;5096875;28;20043;-71
2023/06/19 03:31:57;;;;;;;79.70;38.08;;;;;;;16.70;100.00;100991.25;5096429;28;20441;-73
2023/06/19 03:34:22;;;;;;;89.72;40.45;;;;;;;16.61;100.00;100993.13;5096521;28;20032;-73
2023/06/19 03:36:47;;;;;;;93.38;43.53;;;;;;;16.60;100.00;100999.53;5078271;28;20043;-72
2023/06/19 03:39:13;;;;;;;93.75;41.15;;;;;;;16.56;100.00;101001.72;5096299;28;20039;-73
2023/06/19 03:41:39;;;;;;;88.53;38.78;;;;;;;16.52;100.00;100995.00;5096273;28;20028;-73
2023/06/19 03:44:04;;;;;;;83.45;38.55;;;;;;;16.49;100.00;101005.28;5096172;28;20028;-72
2023/06/19 03:46:30;;;;;;;76.82;35.38;;;;;;;16.48;100.00;101007.13;5096376;28;20032;-73
2023/06/19 03:48:55;;;;;;;65.93;32.47;;;;;;;16.46;100.00;101014.50;5096075;28;20064;-73
2023/06/19 03:51:20;;;;;;;56.05;28.98;;;;;;;16.44;100.00;101027.28;5096371;28;20024;-73
2023/06/19 03:53:46;;;;;;;71.45;32.80;;;;;;;16.45;100.00;101028.09;5095795;28;20064;-73
2023/06/19 03:56:12;;;;;;;62.75;31.10;;;;;;;16.46;100.00;101032.47;5095989;28;20484;-73
2023/06/19 03:58:37;;;;;;;56.10;27.48;;;;;;;16.44;100.00;101035.34;5096726;28;20040;-73
2023/06/19 04:01:03;;;;;;;41.00;21.85;;;;;;;16.40;100.00;101040.19;5095664;28;20028;-73
2023/06/19 04:03:28;;;;;;;33.28;17.67;;;;;;;16.39;100.00;101048.44;5095632;28;20032;-74
2023/06/19 04:05:54;;;;;;;30.38;17.30;;;;;;;16.36;100.00;101043.41;5095953;28;20123;-73
2023/06/19 04:08:19;;;;;;;31.35;16.45;;;;;;;16.39;100.00;101049.28;5095873;28;20138;-73
2023/06/19 04:10:44;;;;;;;22.55;14.02;;;;;;;16.35;100.00;101047.13;5096286;28;20032;-73
2023/06/19 04:13:10;;;;;;;24.10;14.15;;;;;;;16.34;100.00;101046.25;5077619;28;20078;-74
2023/06/19 04:15:36;;;;;;;24.58;13.57;;;;;;;16.33;100.00;101052.66;5095711;28;20030;-73
2023/06/19 04:18:02;;;;;;;25.98;13.85;;;;;;;16.34;100.00;101067.75;5076096;28;20052;-72
2023/06/19 04:20:27;;;;;;;20.17;13.05;;;;;;;16.33;100.00;101052.66;5095568;28;20035;-73
2023/06/19 04:22:52;;;;;;;20.83;12.77;;;;;;;16.34;100.00;101067.75;5077972;28;20052;-73
2023/06/19 04:25:18;;;;;;;24.15;12.88;;;;;;;16.34;100.00;101067.75;5095110;28;20032;-73
2023/06/19 04:27:46;;;;;;;24.23;13.40;;;;;;;16.35;100.00;101082.03;5095385;28;20028;-73
2023/06/19 04:30:12;;;;;;;24.60;13.75;;;;;;;16.36;100.00;101079.16;5095085;28;20024;-73
2023/06/19 04:32:40;;;;;;;24.60;14.90;;;;;;;16.35;100.00;101082.03;5095089;28;20035;-74
2023/06/19 04:35:09;;;;;;;24.13;15.27;;;;;;;16.39;100.00;101096.75;5095792;28;20232;-74
2023/06/19 04:37:35;;;;;;;26.60;14.95;;;;;;;16.37;100.00;101098.78;5095096;28;20040;-74
2023/06/19 04:40:00;;;;;;;22.08;14.68;;;;;;;16.31;100.00;101100.31;5095211;28;20494;-74
2023/06/19 04:42:26;;;;;;;25.65;14.85;;;;;;;16.35;100.00;101098.13;5095518;28;20046;-74
2023/06/19 04:44:52;;;;;;;23.92;15.32;;;;;;;16.38;100.00;101097.78;5095123;28;20085;-73
2023/06/19 04:47:20;;;;;;;23.80;15.30;;;;;;;16.38;100.00;101104.00;5095031;28;20063;-74
2023/06/19 04:49:46;;;;;;;26.35;15.25;;;;;;;16.41;100.00;101102.81;5095020;28;20035;-73
2023/06/19 04:52:11;;;;;;;24.52;15.23;;;;;;;16.44;100.00;101109.69;5094605;28;20059;-73
2023/06/19 04:54:37;;;;;;;26.20;15.57;;;;;;;16.42;100.00;101109.88;5095711;28;20460;-74
2023/06/19 04:57:02;;;;;;;23.75;14.43;;;;;;;16.43;100.00;101116.06;5094721;28;20028;-73
2023/06/19 04:59:30;;;;;;;30.30;16.05;;;;;;;16.46;100.00;101119.25;5094809;28;20077;-73
2023/06/19 05:01:55;;;;;;;26.10;14.77;;;;;;;16.47;100.00;101120.94;5094968;28;20422;-73
2023/06/19 05:04:22;;;;;;;23.73;14.75;;;;;;;16.44;100.00;101137.38;5076870;28;20085;-74
2023/06/19 05:06:48;;;;;;;22.10;14.02;;;;;;;16.39;100.00;101134.34;5094823;28;20039;-73
2023/06/19 05:09:13;;;;;;;26.00;16.05;;;;;;;16.40;100.00;101136.03;5094611;28;20024;-74
2023/06/19 05:11:38;;;;;;;31.98;16.20;;;;;;;16.43;100.00;101141.06;5095221;28;20363;-74
2023/06/19 05:14:04;;;;;;;31.40;16.08;;;;;;;16.46;100.00;101137.22;5094503;28;20472;-74
2023/06/19 05:16:29;;;;;;;24.33;15.93;;;;;;;16.44;100.00;101152.66;5094253;28;20071;-74
2023/06/19 05:18:55;;;;;;;25.08;15.68;;;;;;;16.42;100.00;101165.41;5094552;28;20048;-75
2023/06/19 05:21:20;;;;;;;27.67;16.13;;;;;;;16.40;100.00;101157.53;5094560;28;20032;-75
2023/06/19 05:23:50;;;;;;;25.70;16.13;;;;;;;16.38;100.00;101160.38;5095057;28;20032;-75
2023/06/19 05:26:22;;;;;;;26.52;14.88;;;;;;;16.36;100.00;101153.50;5094386;28;20057;-75
2023/06/19 05:28:48;;;;;;;24.88;15.75;;;;;;;16.35;100.00;101155.34;5093789;28;20050;-73
2023/06/19 05:31:13;;;;;;;27.58;15.85;;;;;;;16.36;100.00;101156.19;5093799;28;20024;-74
2023/06/19 05:33:40;;;;;;;26.67;16.10;;;;;;;16.35;100.00;101163.41;5094609;28;20035;-74
2023/06/19 05:36:05;;;;;;;26.08;16.52;;;;;;;16.28;100.00;101170.44;5094369;28;20035;-74
2023/06/19 05:38:31;;;;;;;22.92;15.52;;;;;;;16.21;100.00;101181.03;5076128;28;20051;-74
2023/06/19 05:40:57;;;;;;;25.65;15.80;;;;;;;16.15;100.00;101181.72;5094073;28;20430;-75
2023/06/19 05:43:24;;;;;;;24.52;15.23;;;;;;;16.10;100.00;101192.09;5093917;28;20035;-75
2023/06/19 05:45:50;;;;;;;24.08;15.38;;;;;;;16.01;100.00;101193.09;5094215;28;20063;-75
2023/06/19 05:48:15;;;;;;;24.48;15.07;;;;;;;15.90;100.00;101196.94;5075295;28;20059;-75
2023/06/19 05:50:41;;;;;;;25.85;16.45;;;;;;;15.88;100.00;101204.31;5093691;28;20074;-74
2023/06/19 05:53:06;;;;;;;24.10;15.60;;;;;;;15.83;100.00;101196.75;5093786;28;20043;-74
2023/06/19 05:55:31;;;;;;;23.90;16.90;;;;;;;15.74;100.00;101197.72;5093880;28;20067;-74
2023/06/19 05:57:57;;;;;;;24.02;15.32;;;;;;;15.74;100.00;101207.63;5094346;28;20051;-74
2023/06/19 06:00:23;;;;;;;25.10;16.92;;;;;;;15.77;100.00;101205.44;5093877;28;20151;-74
2023/06/19 06:02:50;;;;;;;26.10;17.13;;;;;;;15.73;100.00;101204.06;5093830;28;20047;-74
2023/06/19 06:05:17;;;;;;;24.83;17.38;;;;;;;15.75;100.00;101203.91;5075330;28;20167;-74
2023/06/19 06:07:43;;;;;;;24.45;17.25;;;;;;;15.68;100.00;101211.78;5093286;28;20476;-74
2023/06/19 06:10:09;;;;;;;25.10;16.88;;;;;;;15.69;100.00;101214.31;5093371;28;20097;-74
2023/06/19 06:12:34;;;;;;;23.77;16.00;;;;;;;15.72;100.00;101215.84;5093396;28;20032;-74
2023/06/19 06:15:01;;;;;;;25.55;17.08;;;;;;;15.72;100.00;101225.69;5093075;28;20531;-73
2023/06/19 06:17:26;;;;;;;22.75;16.15;;;;;;;15.74;100.00;101232.59;5093336;28;20046;-74
2023/06/19 06:19:52;;;;;;;21.15;15.05;;;;;;;15.77;100.00;101252.91;5093287;28;20035;-73
2023/06/19 06:22:18;;;;;;;25.13;15.88;;;;;;;15.81;100.00;101243.56;5093209;28;20059;-74
2023/06/19 06:24:43;;;;;;;28.02;14.40;;;;;;;15.86;100.00;101252.78;5093089;28;20464;-74
2023/06/19 06:27:09;;;;;;;22.48;14.43;;;;;;;15.82;100.00;101251.44;5075047;28;20122;-75
2023/06/19 06:29:36;;;;;;;23.65;14.10;;;;;;;15.83;100.00;101249.59;5093109;28;20028;-74
2023/06/19 06:32:07;;;;;;;25.95;14.63;;;;;;;15.89;100.00;101253.47;5093206;28;20028;-74
2023/06/19 06:34:35;;;;;;;28.17;14.25;;;;;;;15.91;100.00;101256.81;5093672;28;20496;-74
2023/06/19 06:37:01;;;;;;;27.38;14.70;;;;;;;15.93;100.00;101257.47;5075022;28;20383;-75
2023/06/19 06:39:27;;;;;;;28.42;15.40;;;;;;;15.92;100.00;101262.00;5092914;28;20093;-75
2023/06/19 06:41:52;;;;;;;24.10;13.93;;;;;;;15.98;100.00;101261.34;5095984;28;20032;-75
2023/06/19 06:44:18;;;;;;;21.67;14.73;;;;;;;16.12;100.00;101269.78;5079261;28;20032;-75
2023/06/19 06:46:43;;;;;;;24.35;13.40;;;;;;;16.29;100.00;101268.78;5079010;28;20028;-74
2023/06/19 06:49:09;;;;;;;22.20;12.57;;;;;;;16.53;100.00;101267.97;5097197;28;20035;-82
2023/06/19 06:51:34;;;;;;;20.25;11.45;;;;;;;16.80;100.00;101273.16;5081125;28;20039;-85
2023/06/19 06:53:59;;;;;;;28.23;11.65;;;;;;;16.98;100.00;101273.84;5079735;28;20044;-82
2023/06/19 06:56:25;;;;;;;14.90;10.40;;;;;;;17.08;100.00;101274.50;5098864;28;20097;-78
2023/06/19 06:58:50;;;;;;;18.75;10.43;;;;;;;17.21;100.00;101286.56;5097305;28;20034;-78
2023/06/19 07:01:15;;;;;;;23.73;11.63;;;;;;;17.39;100.00;101278.25;5096971;28;20101;-77
2023/06/19 07:03:41;;;;;;;16.23;10.30;;;;;;;17.54;100.00;101281.94;5096978;28;20036;-79
2023/06/19 07:06:06;;;;;;;14.45;10.43;;;;;;;17.60;100.00;101285.75;5096951;28;20489;-74
2023/06/19 07:08:32;;;;;;;17.17;9.50;;;;;;;17.70;100.00;101288.25;5097108;28;20039;-74
2023/06/19 07:10:57;;;;;;;13.52;9.55;;;;;;;17.58;100.00;101291.31;5097311;28;20364;-76
2023/06/19 07:13:23;;;;;;;18.02;10.85;;;;;;;17.62;100.00;101294.50;5097275;28;20032;-77
2023/06/19 07:15:48;;;;;;;16.45;9.70;;;;;;;17.64;100.00;101305.91;5096784;28;20028;-77
2023/06/19 07:18:14;;;;;;;13.95;8.65;;;;;;;17.63;100.00;101305.09;5096640;28;20075;-74
2023/06/19 07:20:39;;;;;;;14.15;9.73;;;;;;;17.63;100.00;101315.03;5096635;28;20040;-77
2023/06/19 07:23:05;;;;;;;15.40;9.82;;;;;;;17.68;100.00;101306.44;5079403;28;20111;-77
2023/06/19 07:25:33;;;;;;;20.23;9.63;;;;;;;17.77;100.00;101310.75;5096861;28;20378;-78
2023/06/19 07:27:59;;;;;;;15.95;10.07;;;;;;;17.92;100.00;101318.97;5096078;28;20032;-78
2023/06/19 07:30:24;;;;;;;17.48;10.30;;;;;;;18.08;100.00;101315.34;5096265;28;20035;-80
2023/06/19 07:32:50;;;;;;;15.13;10.30;;;;;;;18.06;100.00;101320.88;5096734;28;20052;-78
2023/06/19 07:35:15;;;;;;;14.77;10.23;;;;;;;18.14;100.00;101320.03;5097288;28;20031;-86
2023/06/19 07:37:40;;;;;;;15.80;9.70;;;;;;;18.20;100.00;101315.75;5098311;28;20114;-87
2023/06/19 07:40:06;;;;;;;19.70;10.60;;;;;;;18.28;100.00;101313.84;5098362;28;20485;-87
2023/06/19 07:42:32;;;;;;;22.10;11.80;;;;;;;18.33;100.00;101313.31;5098584;28;20404;-89
2023/06/19 07:44:57;;;;;;;16.65;10.35;;;;;;;18.42;100.00;101320.34;5097670;28;20043;-87
2023/06/19 07:47:22;;;;;;;19.98;10.63;;;;;;;18.43;100.00;101316.63;5096721;28;20066;-83
2023/06/19 07:49:48;;;;;;;17.27;10.70;;;;;;;18.40;100.00;101332.31;5097038;28;20063;-84
2023/06/19 07:52:14;;;;;;;18.45;12.13;;;;;;;18.38;100.00;101337.06;5078753;28;20028;-83
2023/06/19 07:54:56;;;;;;;18.33;12.02;;;;;;;18.41;100.00;101342.91;5096222;28;20035;-85
2023/06/19 07:57:23;;;;;;;20.48;11.98;;;;;;;18.43;100.00;101337.34;5096551;28;20028;-77
2023/06/19 07:59:50;;;;;;;19.88;12.10;;;;;;;18.38;100.00;101337.06;5095738;28;20077;-82
2023/06/19 08:02:15;;;;;;;20.15;12.70;;;;;;;18.38;100.00;101351.34;5096058;28;20032;-79
2023/06/19 08:04:41;;;;;;;20.98;13.48;;;;;;;18.33;100.00;101338.41;5095477;28;20083;-83
2023/06/19 08:07:07;;;;;;;17.45;12.40;;;;;;;18.37;100.00;101344.28;5096056;28;20401;-81
2023/06/19 08:09:32;;;;;;;19.80;12.32;;;;;;;18.50;100.00;101339.13;5077317;28;20395;-80
2023/06/19 08:11:58;;;;;;;22.05;12.23;;;;;;;18.75;100.00;101338.09;5095669;28;20036;-80
2023/06/19 08:14:23;;;;;;;15.02;10.98;;;;;;;18.98;100.00;101343.50;5095301;28;20469;-82
2023/06/19 08:16:48;;;;;;;21.00;11.75;;;;;;;19.14;100.00;101342.53;5077194;28;20433;-84
2023/06/19 08:19:14;;;;;;;15.88;11.68;;;;;;;19.29;100.00;101340.69;5095749;28;20128;-78
2023/06/19 08:21:40;;;;;;;19.88;11.43;;;;;;;19.34;100.00;101345.53;5095132;28;20063;-79
2023/06/19 08:24:05;;;;;;;17.50;10.27;;;;;;;19.46;100.00;101354.00;5095544;28;20383;-80
2023/06/19 08:26:31;;;;;;;18.27;10.55;;;;;;;19.57;100.00;101353.53;5095558;28;20043;-79
2023/06/19 08:28:56;;;;;;;16.30;10.48;;;;;;;19.47;100.00;101347.59;5095684;28;20047;-85
2023/06/19 08:31:27;;;;;;;16.60;10.65;;;;;;;19.41;100.00;101367.19;5095932;28;20111;-76
2023/06/19 08:33:55;;;;;;;21.05;11.35;;;;;;;19.18;100.00;101368.09;5095779;28;20067;-78
2023/06/19 08:36:20;;;;;;;16.05;11.10;;;;;;;19.08;100.00;101375.59;5076989;28;20131;-78
2023/06/19 08:38:49;;;;;;;20.95;11.05;;;;;;;19.10;100.00;101374.41;5095323;28;20063;-76
2023/06/19 08:41:18;;;;;;;23.67;10.80;;;;;;;19.31;100.00;101378.25;5095354;28;20032;-79
2023/06/19 08:43:45;;;;;;;19.88;11.43;;;;;;;19.56;100.00;101385.06;5095097;28;20024;-78
2023/06/19 08:46:12;;;;;;;15.50;9.73;;;;;;;19.85;100.00;101380.72;5095008;28;20111;-79
2023/06/19 08:48:38;;;;;;;13.95;9.38;;;;;;;20.14;100.00;101380.88;5095509;28;20032;-76
2023/06/19 08:51:05;;;;;;;17.73;9.57;;;;;;;20.10;100.00;101385.84;5094973;28;20035;-75
2023/06/19 08:53:35;;;;;;;13.38;9.13;;;;;;;20.08;100.00;101379.78;5094833;28;20059;-88
2023/06/19 08:56:01;;;;;;;16.00;9.83;;;;;;;20.06;100.00;101388.09;5094865;28;20087;-75
2023/06/19 08:58:27;;;;;;;10.50;8.48;;;;;;;19.92;100.00;101380.81;5094681;28;20656;-79
2023/06/19 09:00:53;;;;;;;14.73;8.63;;;;;;;19.90;100.00;101380.19;5094951;28;20081;-76
2023/06/19 09:03:22;;;;;;;20.27;9.57;;;;;;;20.01;100.00;101373.47;5093955;28;20080;-76
2023/06/19 09:05:51;;;;;;;16.17;8.70;;;;;;;20.12;100.00;101378.38;5059591;28;20472;-76
2023/06/19 09:08:20;;;;;;;11.70;8.80;;;;;;;20.27;100.00;101383.72;5076987;28;20122;-79
2023/06/19 09:10:59;;;;;;;12.48;8.70;;;;;;;20.23;100.00;101395.97;5094514;28;20027;-78
2023/06/19 09:13:24;;;;;;;13.90;8.63;;;;;;;20.34;100.00;101392.75;5076321;28;20077;-79
2023/06/19 09:16:07;;;;;;;12.43;9.10;;;;;;;20.45;100.00;101402.22;5094431;28;20115;-78
2023/06/19 09:18:47;;;;;;;15.07;9.00;;;;;;;20.57;100.00;101394.47;5094744;28;20071;-79
2023/06/19 09:21:21;;;;;;;13.77;9.20;;;;;;;20.86;100.00;101407.06;5094295;28;20047;-78
2023/06/19 09:23:47;;;;;;;14.05;9.32;;;;;;;20.95;100.00;101411.31;5094499;28;20036;-78
2023/06/19 09:26:17;;;;;;;17.98;9.05;;;;;;;20.99;100.00;101419.03;5094397;28;20039;-78
2023/06/19 09:28:43;;;;;;;12.60;8.55;;;;;;;20.86;100.00;101417.06;5093906;28;20538;-78
2023/06/19 09:31:09;;;;;;;15.95;8.27;;;;;;;20.85;100.00;101428.88;5075966;28;20036;-80
2023/06/19 09:33:35;;;;;;;14.48;8.60;;;;;;;20.90;100.00;101421.03;5094658;28;20395;-79
2023/06/19 09:36:03;;;;;;;11.85;8.07;;;;;;;21.10;100.00;101421.22;5094434;28;20032;-80
2023/06/19 09:38:33;;;;;;;10.52;7.65;;;;;;;21.42;100.00;101430.66;5095034;28;20089;-83
2023/06/19 09:41:01;;;;;;;;;;;;;;;21.96;100.00;101425.56;5096653;28;20035;-81
2023/06/19 09:43:39;;;;;;;14.38;8.05;;;;;;;22.02;100.00;101436.47;5076113;28;19908;-78
2023/06/19 09:46:06;;;;;;;13.48;8.05;;;;;;;22.02;100.00;101422.09;5094141;28;20039;-79
2023/06/19 09:48:34;;;;;;;12.05;7.95;;;;;;;22.10;100.00;101430.03;5094356;28;20036;-79
2023/06/19 09:51:09;;;;;;;11.05;8.23;;;;;;;22.53;100.00;101437.13;5093710;28;20461;-79
2023/06/19 09:53:35;;;;;;;10.88;7.82;;;;;;;23.56;100.00;101433.28;5093705;28;20075;-75
2023/06/19 09:56:00;;;;;;;11.95;8.02;;;;;;;24.17;100.00;101431.22;5093218;28;20032;-75
2023/06/19 09:58:28;;;;;;;12.10;7.55;;;;;;;24.08;100.00;101442.38;5058777;28;20028;-75
2023/06/19 10:00:54;;;;;;;11.40;6.60;;;;;;;23.49;100.00;101441.41;5093312;28;20468;-75
2023/06/19 10:03:20;;;;;;;9.65;7.15;;;;;;;23.57;100.00;101443.06;5093807;28;20073;-75
2023/06/19 10:05:46;;;;;;;10.77;7.00;;;;;;;23.85;100.00;101445.56;5093387;28;20032;-75
2023/06/19 10:08:12;;;;;;;9.40;6.63;;;;;;;24.11;100.00;101435.66;5093232;28;20457;-75
2023/06/19 10:10:47;;;;;;;8.90;5.88;;;;;;;24.12;100.00;101440.03;5093595;28;20078;-74
2023/06/19 10:13:16;;;;;;;10.90;6.13;;;;;;;23.98;100.00;101444.69;5093543;28;20028;-74
2023/06/19 10:15:44;;;;;;;9.35;6.00;;;;;;;23.70;100.00;101437.59;5093262;28;20460;-74
2023/06/19 10:18:16;;;;;;;9.93;6.38;;;;;;;23.29;100.00;101444.16;5092868;28;20098;-74
2023/06/19 10:20:42;;;;;;;10.90;7.03;;;;;;;23.00;100.00;101446.16;5092951;28;20032;-75
2023/06/19 10:23:10;;;;;;;9.18;5.53;;;;;;;22.75;100.00;101445.09;5093028;28;20492;-74
2023/06/19 10:25:39;;;;;;;12.02;6.45;;;;;;;22.63;100.00;101439.44;5092698;28;20032;-75
2023/06/19 10:28:15;;;;;;;8.77;6.10;;;;;;;22.45;100.00;101445.44;5092979;28;20080;-74
2023/06/19 10:30:41;;;;;;;8.20;5.78;;;;;;;22.67;100.00;101448.84;5075446;28;20384;-75
2023/06/19 10:33:06;;;;;;;8.90;6.00;;;;;;;22.79;100.00;101440.94;5092447;28;20043;-75
2023/06/19 10:35:41;;;;;;;10.05;5.20;;;;;;;22.95;100.00;101448.69;5092754;28;20396;-74
2023/06/19 10:38:07;;;;;;;8.05;5.28;;;;;;;23.34;100.00;101446.22;5093401;28;20107;-74
2023/06/19 10:40:33;;;;;;;7.03;4.72;;;;;;;23.93;100.00;101453.50;5093351;28;20029;-73
2023/06/19 10:42:58;;;;;;;6.55;4.50;;;;;;;24.54;100.00;101443.22;5093066;28;20024;-74
2023/06/19 10:45:28;;;;;;;11.18;5.40;;;;;;;25.14;100.00;101447.44;5092733;28;20059;-73
2023/06/19 10:47:54;;;;;;;7.95;4.65;;;;;;;25.42;100.00;101433.41;5092821;28;20036;-73
2023/06/19 10:50:20;;;;;;;7.95;4.40;;;;;;;25.58;94.36;101434.72;5092763;28;20149;-73
2023/06/19 10:52:48;;;;;;;6.60;4.72;;;;;;;25.88;89.85;101440.25;5074906;28;20075;-73
2023/06/19 10:55:14;;;;;;;8.23;5.07;;;;;;;26.52;85.39;101436.38;5093309;28;20032;-73
2023/06/19 10:57:50;;;;;;;6.90;4.97;;;;;;;26.65;87.93;101441.63;5093236;28;20032;-74
2023/06/19 11:00:34;;;;;;;7.72;5.10;;;;;;;26.65;73.79;101444.38;5093373;28;20097;-74
2023/06/19 11:02:59;;;;;;;6.18;4.10;;;;;;;27.46;73.77;101433.03;5092766;28;20386;-74
2023/06/19 11:05:27;;;;;;;7.65;4.50;;;;;;;27.90;69.19;101428.03;5075064;28;20123;-74